Aktualne dane pomiarowe

Uwaga, wersja testowa! Automatyczne pobieranie danych za pomocą narzędzi lub skryptów to umożliwiających jest zabronione.

Dane meteo z obszaru Polski uzyskane na podstawie depesz SYNOP pobieranych co godzinę z NWS. Najedź myszką na symbol przedstawiony w tabeli, aby uzyskać informacje co do jego znaczenia. Prosimy pamiętać, że to testowa wersja strony, która jeszcze nie jest ukończona. Stworzono również jest krótki FAQ dotyczący korzystania z tej podstrony Anomalie temperatury w chwili obecnej odniesione są do okresu referencyjnego 1951-2016. Okres ten będzie później zmieniony na 1981-2010. Kliknij ikonę aby pobrać plik CSV. Kliknij ikonę aby wygenerować mapę synoptyczną dla danego terminu.

Wybierz Datę:    

        

Ostrołęka (12285)

Dane terminowe dla wybranej stacji. Kliknij datę, aby otrzymać dane z tego terminu dla wszystkich stacji.

TemperaturaZachmurzenieWiatrCiśnienieOpadyPogoda
 Data t td wb tx tn tg rh  Nt Nl Cl Cm Ch ws wd g1 g2 wx mslp ppp ch 24h 12h t ww ww w1 w2  
2019-08-08 23:00:00 15.1 12.9 13.6--- 875.0--1----1012.01000.6 1.7---wx-----
2019-08-08 22:00:00 14.9 13.1 13.6--- 8920.0--1----1012.21000.9 1.9---------
2019-08-08 21:00:00 16.2 12.7 13.9--- 8020.0--2----1011.1 999.8 1.1---------
2019-08-08 20:00:00 16.2 15.1 15.4--- 9320.0--0----1010.2 999.0 0.4---------
2019-08-08 19:00:00 17.4 15.2 15.8--- 8720.0--1----1010.1 998.9 0.7---------
2019-08-08 18:00:00 20.5 14.3 16.4 25.4 18.1- 6820.0--1----1009.8 998.8 0.4- 2.012------
2019-08-08 17:00:00 22.3 14.7 17.4--- 6220.0--1----1009.5 998.5 0.6---------
2019-08-08 16:00:00 23.0 14.0 17.3--- 5720.0--0----1009.1 998.2 0.8---------
2019-08-08 15:00:00 22.1 13.0 16.4--- 5620.0--3----1009.4 998.4 1.7---------
2019-08-08 14:00:00 19.8 15.6 16.9--- 7720.0--3----1009.0 997.9 1.6---------
2019-08-08 13:00:00 23.6 14.6 17.8--- 5720.0--4wx---1008.3 997.3 1.3---------
2019-08-08 12:00:00 24.6 14.2 18.0--- 5220.0--4----1007.5 996.6 1.1- 0.06------
2019-08-08 11:00:00 23.1 14.2 17.4--- 5720.0--5wx---1007.3 996.3 1.4---------
2019-08-08 10:00:00 21.9 16.1 18.0--- 7020.0--5wx---1007.0 996.0 1.8---------
2019-08-08 09:00:00 19.3 17.1 17.7--- 8720.0--4----1006.6 995.5 2.2---------
2019-08-08 08:00:00 19.0 16.9 17.5--- 8820.0--3----1006.0 994.9 2.4---------
2019-08-08 07:00:00 18.8 17.1 17.6--- 9020.0--3----1005.3 994.2 1.6---------
2019-08-08 06:00:00 18.1 17.1 17.4 22.9 17.6 17 9419.0--4----1004.4 993.3 0.4 17.4 17.012----- 0.0
2019-08-08 05:00:00 17.7 17.0 17.2--- 9618.0--0----1003.7 992.6 -0.4---------
2019-08-08 04:00:00 17.8 17.2 17.4--- 9613.0--0----1003.6 992.5 -0.8---------
2019-08-08 03:00:00 17.9 17.4 17.5--- 975.0--2----1003.9 992.8 -0.6---wx-----
2019-08-08 02:00:00 17.8 17.3 17.4--- 9720.0--2wx---1004.1 993.0 -1.4---------
2019-08-08 01:00:00 17.7 17.2 17.3--- 978.0--2----1004.4 993.3 -0.8---wx-----
2019-08-08 00:00:00 18.3 17.3 17.6--- 9420.0--2----1004.5 993.4 -1.1- 10.06wx-----
2019-08-07 23:00:00 18.8 16.3 17.0--- 852.9--4wx---1005.4 994.3 -0.5---wx-----
2019-08-07 22:00:00 20.3 17.5 18.3--- 8420.0--2wx---1005.1 994.1 -1.1---------
2019-08-07 21:00:00 20.3 17.6 18.4--- 8520.0--0----1005.6 994.6 -0.7---------
2019-08-07 20:00:00 20.5 17.3 18.2--- 8220.0--0----1005.9 994.8 -0.9---------
2019-08-07 19:00:00 21.1 17.2 18.4--- 7820.0--1wx---1006.2 995.2 -0.5---------
2019-08-07 18:00:00 22.9 17.3 19.1 26.3 17.2- 7120.0--1----1006.2 995.2 -1.0- 0.012------
2019-08-07 17:00:00 24.6 16.8 19.4--- 6220.0--2----1006.6 995.7 -0.8---------
2019-08-07 16:00:00 25.7 14.7 18.7--- 5120.0--1----1006.5 995.7 -1.1---------
2019-08-07 15:00:00 26.2 14.5 18.8--- 4920.0--1----1007.1 996.3 -1.1---------
2019-08-07 14:00:00 25.2 15.1 18.7--- 5420.0--0----1007.4 996.5 -1.0---------
2019-08-07 13:00:00 25.7 15.7 19.2--- 5420.0--1----1007.6 996.8 -1.0---------
2019-08-07 12:00:00 25.1 16.7 19.5--- 6020.0--2----1008.3 997.4 -0.4- 0.06------
2019-08-07 11:00:00 24.0 17.7 19.7--- 6820.0--2----1008.5 997.5 0.0---------
2019-08-07 10:00:00 22.4 17.6 19.1--- 7420.0--2----1008.8 997.8 0.2---------
2019-08-07 09:00:00 20.8 17.3 18.4--- 8020.0--0----1008.8 997.8 1.0---------
2019-08-07 08:00:00 19.0 16.8 17.4--- 8720.0--1----1008.8 997.6 0.5---------
2019-08-07 07:00:00 18.0 16.7 17.1--- 9217.0--2----1008.7 997.5 0.0---------
2019-08-07 06:00:00 17.3 16.5 16.7 17.8 15.2 14 9510.0--2----1007.9 996.8 -0.4 18.4 14.012----- 0.0
2019-08-07 05:00:00 16.7 16.2 16.3--- 9711.0--1----1008.3 997.1 -0.4---------
2019-08-07 04:00:00 16.0 15.4 15.5--- 9612.0--0----1008.7 997.5 -0.2---------
2019-08-07 03:00:00 16.1 15.3 15.5--- 9515.0--1----1008.4 997.2 -0.3---wx-----
2019-08-07 02:00:00 15.5 15.0 15.1--- 979.0--2----1008.8 997.6 0.3---wx-----
2019-08-07 01:00:00 15.4 14.7 14.9--- 968.0--1----1008.9 997.6 0.0---wx-----
2019-08-07 00:00:00 15.7 15.1 15.2--- 9618.0--3----1008.7 997.5 -0.3- 13.06------
1.0 ms

 

Print Friendly, PDF & Email